sensor_id;sensor_type;location;lat;lon;timestamp;P1;durP1;ratioP1;P2;durP2;ratioP2
54201;SDS011;40108;53.152;5.844;2024-01-11T00:01:59;38.90;;;21.80;;
54201;SDS011;40108;53.152;5.844;2024-01-11T00:04:24;37.23;;;22.07;;
54201;SDS011;40108;53.152;5.844;2024-01-11T00:06:51;36.10;;;21.13;;
54201;SDS011;40108;53.152;5.844;2024-01-11T00:09:16;34.83;;;21.10;;
54201;SDS011;40108;53.152;5.844;2024-01-11T00:11:42;38.70;;;22.03;;
54201;SDS011;40108;53.152;5.844;2024-01-11T00:14:08;36.10;;;21.83;;
54201;SDS011;40108;53.152;5.844;2024-01-11T00:16:34;38.23;;;21.50;;
54201;SDS011;40108;53.152;5.844;2024-01-11T00:18:59;35.53;;;21.37;;
54201;SDS011;40108;53.152;5.844;2024-01-11T00:21:25;35.23;;;21.77;;
54201;SDS011;40108;53.152;5.844;2024-01-11T00:23:51;34.40;;;20.73;;
54201;SDS011;40108;53.152;5.844;2024-01-11T00:26:16;34.00;;;21.07;;
54201;SDS011;40108;53.152;5.844;2024-01-11T00:28:42;35.40;;;21.67;;
54201;SDS011;40108;53.152;5.844;2024-01-11T00:31:07;36.37;;;20.63;;
54201;SDS011;40108;53.152;5.844;2024-01-11T00:33:33;41.03;;;22.60;;
54201;SDS011;40108;53.152;5.844;2024-01-11T00:35:59;38.53;;;21.87;;
54201;SDS011;40108;53.152;5.844;2024-01-11T00:38:24;40.97;;;23.37;;
54201;SDS011;40108;53.152;5.844;2024-01-11T00:40:50;38.63;;;21.93;;
54201;SDS011;40108;53.152;5.844;2024-01-11T00:43:16;35.20;;;21.47;;
54201;SDS011;40108;53.152;5.844;2024-01-11T00:45:41;35.37;;;21.20;;
54201;SDS011;40108;53.152;5.844;2024-01-11T00:48:08;36.20;;;21.10;;
54201;SDS011;40108;53.152;5.844;2024-01-11T00:50:34;40.67;;;22.93;;
54201;SDS011;40108;53.152;5.844;2024-01-11T00:53:00;37.30;;;22.60;;
54201;SDS011;40108;53.152;5.844;2024-01-11T00:55:26;39.33;;;23.33;;
54201;SDS011;40108;53.152;5.844;2024-01-11T00:57:52;42.40;;;24.37;;
54201;SDS011;40108;53.152;5.844;2024-01-11T01:00:17;43.73;;;23.93;;
54201;SDS011;40108;53.152;5.844;2024-01-11T01:02:43;41.03;;;23.80;;
54201;SDS011;40108;53.152;5.844;2024-01-11T01:05:09;43.00;;;23.67;;
54201;SDS011;40108;53.152;5.844;2024-01-11T01:07:35;40.87;;;23.67;;
54201;SDS011;40108;53.152;5.844;2024-01-11T01:10:00;41.90;;;24.00;;
54201;SDS011;40108;53.152;5.844;2024-01-11T01:12:27;44.10;;;23.60;;
54201;SDS011;40108;53.152;5.844;2024-01-11T01:14:53;40.27;;;23.10;;
54201;SDS011;40108;53.152;5.844;2024-01-11T01:17:21;43.33;;;23.70;;
54201;SDS011;40108;53.152;5.844;2024-01-11T01:19:47;44.20;;;23.90;;
54201;SDS011;40108;53.152;5.844;2024-01-11T01:22:13;46.10;;;24.67;;
54201;SDS011;40108;53.152;5.844;2024-01-11T01:24:38;44.47;;;24.20;;
54201;SDS011;40108;53.152;5.844;2024-01-11T01:27:04;44.00;;;23.97;;
54201;SDS011;40108;53.152;5.844;2024-01-11T01:29:30;44.33;;;24.37;;
54201;SDS011;40108;53.152;5.844;2024-01-11T01:31:55;47.07;;;25.70;;
54201;SDS011;40108;53.152;5.844;2024-01-11T01:34:21;43.13;;;24.67;;
54201;SDS011;40108;53.152;5.844;2024-01-11T01:36:47;43.23;;;24.37;;
54201;SDS011;40108;53.152;5.844;2024-01-11T01:39:12;46.07;;;24.57;;
54201;SDS011;40108;53.152;5.844;2024-01-11T01:41:38;46.23;;;25.17;;
54201;SDS011;40108;53.152;5.844;2024-01-11T01:44:04;45.80;;;25.13;;
54201;SDS011;40108;53.152;5.844;2024-01-11T01:46:29;47.50;;;26.03;;
54201;SDS011;40108;53.152;5.844;2024-01-11T01:48:56;42.60;;;24.37;;
54201;SDS011;40108;53.152;5.844;2024-01-11T01:51:23;45.20;;;25.73;;
54201;SDS011;40108;53.152;5.844;2024-01-11T01:53:52;44.67;;;24.53;;
54201;SDS011;40108;53.152;5.844;2024-01-11T01:56:19;47.70;;;26.10;;
54201;SDS011;40108;53.152;5.844;2024-01-11T01:58:46;50.07;;;26.10;;
54201;SDS011;40108;53.152;5.844;2024-01-11T02:01:13;51.00;;;26.67;;
54201;SDS011;40108;53.152;5.844;2024-01-11T02:03:39;49.77;;;27.73;;
54201;SDS011;40108;53.152;5.844;2024-01-11T02:06:06;48.20;;;26.23;;
54201;SDS011;40108;53.152;5.844;2024-01-11T02:08:32;47.37;;;26.70;;
54201;SDS011;40108;53.152;5.844;2024-01-11T02:10:59;47.00;;;25.33;;
54201;SDS011;40108;53.152;5.844;2024-01-11T02:13:26;52.83;;;28.10;;
54201;SDS011;40108;53.152;5.844;2024-01-11T02:15:51;49.10;;;26.27;;
54201;SDS011;40108;53.152;5.844;2024-01-11T02:18:17;48.17;;;27.13;;
54201;SDS011;40108;53.152;5.844;2024-01-11T02:20:43;47.03;;;26.57;;
54201;SDS011;40108;53.152;5.844;2024-01-11T02:23:11;51.57;;;28.47;;
54201;SDS011;40108;53.152;5.844;2024-01-11T02:25:42;53.60;;;26.67;;
54201;SDS011;40108;53.152;5.844;2024-01-11T02:28:08;53.97;;;28.27;;
54201;SDS011;40108;53.152;5.844;2024-01-11T02:30:34;49.20;;;25.93;;
54201;SDS011;40108;53.152;5.844;2024-01-11T02:32:59;51.93;;;27.20;;
54201;SDS011;40108;53.152;5.844;2024-01-11T02:35:26;48.53;;;25.57;;
54201;SDS011;40108;53.152;5.844;2024-01-11T02:37:53;54.13;;;27.70;;
54201;SDS011;40108;53.152;5.844;2024-01-11T02:40:19;55.20;;;28.03;;
54201;SDS011;40108;53.152;5.844;2024-01-11T02:42:45;55.87;;;28.10;;
54201;SDS011;40108;53.152;5.844;2024-01-11T02:45:11;51.67;;;27.17;;
54201;SDS011;40108;53.152;5.844;2024-01-11T02:47:38;51.60;;;28.20;;
54201;SDS011;40108;53.152;5.844;2024-01-11T02:50:04;53.50;;;28.33;;
54201;SDS011;40108;53.152;5.844;2024-01-11T02:52:32;51.60;;;28.40;;
54201;SDS011;40108;53.152;5.844;2024-01-11T02:54:58;51.83;;;28.03;;
54201;SDS011;40108;53.152;5.844;2024-01-11T02:57:23;53.97;;;27.43;;
54201;SDS011;40108;53.152;5.844;2024-01-11T02:59:49;54.87;;;28.07;;
54201;SDS011;40108;53.152;5.844;2024-01-11T03:02:16;54.27;;;29.10;;
54201;SDS011;40108;53.152;5.844;2024-01-11T03:04:41;52.33;;;28.70;;
54201;SDS011;40108;53.152;5.844;2024-01-11T03:07:07;54.60;;;29.97;;
54201;SDS011;40108;53.152;5.844;2024-01-11T03:09:33;52.03;;;27.17;;
54201;SDS011;40108;53.152;5.844;2024-01-11T03:11:59;51.53;;;27.83;;
54201;SDS011;40108;53.152;5.844;2024-01-11T03:14:25;50.30;;;28.37;;
54201;SDS011;40108;53.152;5.844;2024-01-11T03:16:51;52.33;;;26.80;;
54201;SDS011;40108;53.152;5.844;2024-01-11T03:19:16;58.33;;;29.00;;
54201;SDS011;40108;53.152;5.844;2024-01-11T03:21:43;55.97;;;30.03;;
54201;SDS011;40108;53.152;5.844;2024-01-11T03:24:09;53.63;;;28.30;;
54201;SDS011;40108;53.152;5.844;2024-01-11T03:26:34;48.67;;;26.57;;
54201;SDS011;40108;53.152;5.844;2024-01-11T03:29:00;53.57;;;27.23;;
54201;SDS011;40108;53.152;5.844;2024-01-11T03:31:26;51.63;;;27.37;;
54201;SDS011;40108;53.152;5.844;2024-01-11T03:33:52;50.53;;;27.57;;
54201;SDS011;40108;53.152;5.844;2024-01-11T03:36:17;52.27;;;28.07;;
54201;SDS011;40108;53.152;5.844;2024-01-11T03:38:43;58.27;;;29.83;;
54201;SDS011;40108;53.152;5.844;2024-01-11T03:41:09;57.87;;;28.37;;
54201;SDS011;40108;53.152;5.844;2024-01-11T03:43:35;58.07;;;29.53;;
54201;SDS011;40108;53.152;5.844;2024-01-11T03:46:01;55.97;;;28.83;;
54201;SDS011;40108;53.152;5.844;2024-01-11T03:48:27;58.70;;;29.40;;
54201;SDS011;40108;53.152;5.844;2024-01-11T03:50:52;56.93;;;28.73;;
54201;SDS011;40108;53.152;5.844;2024-01-11T03:53:18;55.40;;;28.93;;
54201;SDS011;40108;53.152;5.844;2024-01-11T03:55:44;53.10;;;28.77;;
54201;SDS011;40108;53.152;5.844;2024-01-11T03:58:09;53.03;;;26.43;;
54201;SDS011;40108;53.152;5.844;2024-01-11T04:00:35;53.80;;;28.67;;
54201;SDS011;40108;53.152;5.844;2024-01-11T04:03:01;53.23;;;27.43;;
54201;SDS011;40108;53.152;5.844;2024-01-11T04:05:27;48.50;;;27.23;;
54201;SDS011;40108;53.152;5.844;2024-01-11T04:07:53;49.07;;;26.83;;
54201;SDS011;40108;53.152;5.844;2024-01-11T04:10:18;51.07;;;27.30;;
54201;SDS011;40108;53.152;5.844;2024-01-11T04:12:44;52.57;;;27.80;;
54201;SDS011;40108;53.152;5.844;2024-01-11T04:15:12;54.60;;;28.80;;
54201;SDS011;40108;53.152;5.844;2024-01-11T04:17:39;51.93;;;28.27;;
54201;SDS011;40108;53.152;5.844;2024-01-11T04:20:05;52.77;;;27.80;;
54201;SDS011;40108;53.152;5.844;2024-01-11T04:22:32;53.27;;;28.67;;
54201;SDS011;40108;53.152;5.844;2024-01-11T04:24:57;56.13;;;29.00;;
54201;SDS011;40108;53.152;5.844;2024-01-11T04:27:23;55.00;;;27.97;;
54201;SDS011;40108;53.152;5.844;2024-01-11T04:29:49;51.97;;;27.90;;
54201;SDS011;40108;53.152;5.844;2024-01-11T04:32:14;51.30;;;27.70;;
54201;SDS011;40108;53.152;5.844;2024-01-11T04:34:40;50.67;;;27.10;;
54201;SDS011;40108;53.152;5.844;2024-01-11T04:37:06;55.17;;;29.17;;
54201;SDS011;40108;53.152;5.844;2024-01-11T04:39:32;56.47;;;28.33;;
54201;SDS011;40108;53.152;5.844;2024-01-11T04:41:58;55.63;;;27.93;;
54201;SDS011;40108;53.152;5.844;2024-01-11T04:44:25;52.77;;;28.13;;
54201;SDS011;40108;53.152;5.844;2024-01-11T04:46:51;55.33;;;27.87;;
54201;SDS011;40108;53.152;5.844;2024-01-11T04:49:17;52.80;;;28.13;;
54201;SDS011;40108;53.152;5.844;2024-01-11T04:51:42;52.13;;;27.40;;
54201;SDS011;40108;53.152;5.844;2024-01-11T04:54:08;55.80;;;28.57;;
54201;SDS011;40108;53.152;5.844;2024-01-11T04:56:34;53.10;;;28.87;;
54201;SDS011;40108;53.152;5.844;2024-01-11T04:58:59;53.53;;;27.80;;
54201;SDS011;40108;53.152;5.844;2024-01-11T05:01:25;56.27;;;28.80;;
54201;SDS011;40108;53.152;5.844;2024-01-11T05:03:51;52.23;;;27.27;;
54201;SDS011;40108;53.152;5.844;2024-01-11T05:08:46;53.10;;;27.37;;
54201;SDS011;40108;53.152;5.844;2024-01-11T05:11:21;55.13;;;28.13;;
54201;SDS011;40108;53.152;5.844;2024-01-11T05:13:49;54.50;;;29.07;;
54201;SDS011;40108;53.152;5.844;2024-01-11T05:16:22;57.07;;;29.83;;
54201;SDS011;40108;53.152;5.844;2024-01-11T05:18:49;55.67;;;29.13;;
54201;SDS011;40108;53.152;5.844;2024-01-11T05:21:19;56.37;;;29.63;;
54201;SDS011;40108;53.152;5.844;2024-01-11T05:23:45;61.07;;;30.53;;
54201;SDS011;40108;53.152;5.844;2024-01-11T05:26:11;59.50;;;30.43;;
54201;SDS011;40108;53.152;5.844;2024-01-11T05:28:37;57.47;;;30.23;;
54201;SDS011;40108;53.152;5.844;2024-01-11T05:31:10;58.77;;;30.40;;
54201;SDS011;40108;53.152;5.844;2024-01-11T05:33:37;60.67;;;30.27;;
54201;SDS011;40108;53.152;5.844;2024-01-11T05:36:04;56.57;;;30.80;;
54201;SDS011;40108;53.152;5.844;2024-01-11T05:38:30;58.47;;;30.47;;
54201;SDS011;40108;53.152;5.844;2024-01-11T05:40:56;57.80;;;30.13;;
54201;SDS011;40108;53.152;5.844;2024-01-11T05:43:22;63.37;;;32.00;;
54201;SDS011;40108;53.152;5.844;2024-01-11T05:45:51;56.70;;;30.80;;
54201;SDS011;40108;53.152;5.844;2024-01-11T05:48:17;57.23;;;30.47;;
54201;SDS011;40108;53.152;5.844;2024-01-11T05:50:43;56.70;;;29.10;;
54201;SDS011;40108;53.152;5.844;2024-01-11T05:53:09;55.83;;;30.67;;
54201;SDS011;40108;53.152;5.844;2024-01-11T05:55:36;57.53;;;29.23;;
54201;SDS011;40108;53.152;5.844;2024-01-11T05:58:02;58.50;;;30.27;;
54201;SDS011;40108;53.152;5.844;2024-01-11T06:00:28;56.97;;;30.40;;
54201;SDS011;40108;53.152;5.844;2024-01-11T06:02:54;57.27;;;30.80;;
54201;SDS011;40108;53.152;5.844;2024-01-11T06:05:20;57.33;;;30.93;;
54201;SDS011;40108;53.152;5.844;2024-01-11T06:07:46;55.53;;;30.73;;
54201;SDS011;40108;53.152;5.844;2024-01-11T06:10:12;57.17;;;30.60;;
54201;SDS011;40108;53.152;5.844;2024-01-11T06:12:39;54.80;;;29.57;;
54201;SDS011;40108;53.152;5.844;2024-01-11T06:15:05;56.03;;;30.50;;
54201;SDS011;40108;53.152;5.844;2024-01-11T06:17:31;61.10;;;32.70;;
54201;SDS011;40108;53.152;5.844;2024-01-11T06:19:57;70.47;;;34.50;;
54201;SDS011;40108;53.152;5.844;2024-01-11T06:22:23;63.53;;;33.80;;
54201;SDS011;40108;53.152;5.844;2024-01-11T06:24:48;62.00;;;32.93;;
54201;SDS011;40108;53.152;5.844;2024-01-11T06:27:14;60.00;;;31.33;;
54201;SDS011;40108;53.152;5.844;2024-01-11T06:29:39;59.27;;;30.50;;
54201;SDS011;40108;53.152;5.844;2024-01-11T06:32:05;56.13;;;29.77;;
54201;SDS011;40108;53.152;5.844;2024-01-11T06:34:32;59.27;;;31.80;;
54201;SDS011;40108;53.152;5.844;2024-01-11T06:36:59;59.57;;;30.60;;
54201;SDS011;40108;53.152;5.844;2024-01-11T06:39:25;57.53;;;30.80;;
54201;SDS011;40108;53.152;5.844;2024-01-11T06:41:50;56.73;;;29.67;;
54201;SDS011;40108;53.152;5.844;2024-01-11T06:44:16;52.40;;;28.73;;
54201;SDS011;40108;53.152;5.844;2024-01-11T06:46:42;54.00;;;29.87;;
54201;SDS011;40108;53.152;5.844;2024-01-11T06:49:08;52.17;;;28.97;;
54201;SDS011;40108;53.152;5.844;2024-01-11T06:51:34;51.17;;;28.10;;
54201;SDS011;40108;53.152;5.844;2024-01-11T06:54:00;50.70;;;26.80;;
54201;SDS011;40108;53.152;5.844;2024-01-11T06:56:26;51.63;;;29.73;;
54201;SDS011;40108;53.152;5.844;2024-01-11T06:58:52;49.00;;;26.87;;
54201;SDS011;40108;53.152;5.844;2024-01-11T07:01:20;55.77;;;29.50;;
54201;SDS011;40108;53.152;5.844;2024-01-11T07:03:46;47.30;;;27.23;;
54201;SDS011;40108;53.152;5.844;2024-01-11T07:06:12;49.47;;;29.07;;
54201;SDS011;40108;53.152;5.844;2024-01-11T07:08:37;51.03;;;28.50;;
54201;SDS011;40108;53.152;5.844;2024-01-11T07:11:03;52.97;;;28.27;;
54201;SDS011;40108;53.152;5.844;2024-01-11T07:13:30;52.63;;;28.83;;
54201;SDS011;40108;53.152;5.844;2024-01-11T07:15:58;49.77;;;27.67;;
54201;SDS011;40108;53.152;5.844;2024-01-11T07:18:25;50.80;;;28.30;;
54201;SDS011;40108;53.152;5.844;2024-01-11T07:20:51;49.87;;;28.90;;
54201;SDS011;40108;53.152;5.844;2024-01-11T07:23:21;52.67;;;28.93;;
54201;SDS011;40108;53.152;5.844;2024-01-11T07:25:47;54.10;;;30.13;;
54201;SDS011;40108;53.152;5.844;2024-01-11T07:28:13;51.27;;;28.13;;
54201;SDS011;40108;53.152;5.844;2024-01-11T07:30:38;51.03;;;29.58;;
54201;SDS011;40108;53.152;5.844;2024-01-11T07:33:05;54.23;;;28.23;;
54201;SDS011;40108;53.152;5.844;2024-01-11T07:35:31;49.50;;;29.23;;
54201;SDS011;40108;53.152;5.844;2024-01-11T07:37:57;50.40;;;29.50;;
54201;SDS011;40108;53.152;5.844;2024-01-11T07:40:23;52.13;;;29.30;;
54201;SDS011;40108;53.152;5.844;2024-01-11T07:42:48;54.15;;;30.08;;
54201;SDS011;40108;53.152;5.844;2024-01-11T07:45:15;51.03;;;29.50;;
54201;SDS011;40108;53.152;5.844;2024-01-11T07:47:42;50.10;;;28.10;;
54201;SDS011;40108;53.152;5.844;2024-01-11T07:50:07;52.57;;;29.93;;
54201;SDS011;40108;53.152;5.844;2024-01-11T07:52:37;53.03;;;29.77;;
54201;SDS011;40108;53.152;5.844;2024-01-11T07:55:04;52.00;;;29.47;;
54201;SDS011;40108;53.152;5.844;2024-01-11T07:57:35;56.90;;;30.38;;
54201;SDS011;40108;53.152;5.844;2024-01-11T08:00:02;51.30;;;29.75;;
54201;SDS011;40108;53.152;5.844;2024-01-11T08:02:29;51.87;;;29.90;;
54201;SDS011;40108;53.152;5.844;2024-01-11T08:04:55;50.90;;;30.60;;
54201;SDS011;40108;53.152;5.844;2024-01-11T08:07:21;50.57;;;29.37;;
54201;SDS011;40108;53.152;5.844;2024-01-11T08:09:47;53.20;;;30.20;;
54201;SDS011;40108;53.152;5.844;2024-01-11T08:12:13;54.63;;;29.92;;
54201;SDS011;40108;53.152;5.844;2024-01-11T08:14:42;50.27;;;29.23;;
54201;SDS011;40108;53.152;5.844;2024-01-11T08:17:08;49.33;;;29.15;;
54201;SDS011;40108;53.152;5.844;2024-01-11T08:19:34;49.87;;;29.17;;
54201;SDS011;40108;53.152;5.844;2024-01-11T08:22:00;49.25;;;28.77;;
54201;SDS011;40108;53.152;5.844;2024-01-11T08:24:27;49.00;;;27.97;;
54201;SDS011;40108;53.152;5.844;2024-01-11T08:26:53;51.58;;;29.13;;
54201;SDS011;40108;53.152;5.844;2024-01-11T08:29:18;53.00;;;30.10;;
54201;SDS011;40108;53.152;5.844;2024-01-11T08:31:47;52.43;;;30.70;;
54201;SDS011;40108;53.152;5.844;2024-01-11T08:34:13;49.15;;;30.95;;
54201;SDS011;40108;53.152;5.844;2024-01-11T08:36:39;53.88;;;30.30;;
54201;SDS011;40108;53.152;5.844;2024-01-11T08:39:05;50.58;;;29.08;;
54201;SDS011;40108;53.152;5.844;2024-01-11T08:41:32;50.60;;;29.08;;
54201;SDS011;40108;53.152;5.844;2024-01-11T08:43:58;52.72;;;30.20;;
54201;SDS011;40108;53.152;5.844;2024-01-11T08:46:27;51.70;;;29.85;;
54201;SDS011;40108;53.152;5.844;2024-01-11T08:48:56;47.75;;;28.90;;
54201;SDS011;40108;53.152;5.844;2024-01-11T08:51:22;50.75;;;28.75;;
54201;SDS011;40108;53.152;5.844;2024-01-11T08:53:47;50.90;;;28.48;;
54201;SDS011;40108;53.152;5.844;2024-01-11T08:56:13;53.45;;;29.85;;
54201;SDS011;40108;53.152;5.844;2024-01-11T08:58:41;50.92;;;29.60;;
54201;SDS011;40108;53.152;5.844;2024-01-11T09:01:06;51.05;;;28.55;;
54201;SDS011;40108;53.152;5.844;2024-01-11T09:03:34;46.45;;;27.27;;
54201;SDS011;40108;53.152;5.844;2024-01-11T09:06:00;50.22;;;28.58;;
54201;SDS011;40108;53.152;5.844;2024-01-11T09:08:27;53.75;;;30.42;;
54201;SDS011;40108;53.152;5.844;2024-01-11T09:10:52;47.92;;;28.48;;
54201;SDS011;40108;53.152;5.844;2024-01-11T09:13:18;52.30;;;29.38;;
54201;SDS011;40108;53.152;5.844;2024-01-11T09:15:44;47.75;;;30.08;;
54201;SDS011;40108;53.152;5.844;2024-01-11T09:18:10;53.30;;;29.85;;
54201;SDS011;40108;53.152;5.844;2024-01-11T09:20:35;47.20;;;28.13;;
54201;SDS011;40108;53.152;5.844;2024-01-11T09:23:01;48.45;;;28.58;;
54201;SDS011;40108;53.152;5.844;2024-01-11T09:25:29;48.88;;;29.02;;
54201;SDS011;40108;53.152;5.844;2024-01-11T09:27:57;45.85;;;28.05;;
54201;SDS011;40108;53.152;5.844;2024-01-11T09:30:23;46.42;;;27.20;;
54201;SDS011;40108;53.152;5.844;2024-01-11T09:32:49;50.55;;;28.88;;
54201;SDS011;40108;53.152;5.844;2024-01-11T09:35:15;46.28;;;27.45;;
54201;SDS011;40108;53.152;5.844;2024-01-11T09:37:40;44.78;;;26.98;;
54201;SDS011;40108;53.152;5.844;2024-01-11T09:40:07;43.53;;;26.73;;
54201;SDS011;40108;53.152;5.844;2024-01-11T09:42:36;47.85;;;28.40;;
54201;SDS011;40108;53.152;5.844;2024-01-11T09:45:02;44.22;;;27.30;;
54201;SDS011;40108;53.152;5.844;2024-01-11T09:47:43;44.55;;;26.05;;
54201;SDS011;40108;53.152;5.844;2024-01-11T09:50:11;46.35;;;27.00;;
54201;SDS011;40108;53.152;5.844;2024-01-11T09:52:44;41.85;;;25.75;;
54201;SDS011;40108;53.152;5.844;2024-01-11T09:55:15;45.40;;;27.02;;
54201;SDS011;40108;53.152;5.844;2024-01-11T09:57:45;46.67;;;26.67;;
54201;SDS011;40108;53.152;5.844;2024-01-11T10:00:22;44.55;;;26.77;;
54201;SDS011;40108;53.152;5.844;2024-01-11T10:02:48;41.70;;;25.85;;
54201;SDS011;40108;53.152;5.844;2024-01-11T10:05:15;44.03;;;26.40;;
54201;SDS011;40108;53.152;5.844;2024-01-11T10:07:43;41.28;;;26.25;;
54201;SDS011;40108;53.152;5.844;2024-01-11T10:10:10;45.95;;;26.55;;
54201;SDS011;40108;53.152;5.844;2024-01-11T10:12:40;41.10;;;24.90;;
54201;SDS011;40108;53.152;5.844;2024-01-11T10:15:07;43.15;;;24.88;;
54201;SDS011;40108;53.152;5.844;2024-01-11T10:17:42;43.22;;;25.15;;
54201;SDS011;40108;53.152;5.844;2024-01-11T10:20:09;44.08;;;25.27;;
54201;SDS011;40108;53.152;5.844;2024-01-11T10:22:36;42.50;;;25.02;;
54201;SDS011;40108;53.152;5.844;2024-01-11T10:25:12;50.08;;;27.25;;
54201;SDS011;40108;53.152;5.844;2024-01-11T10:27:42;40.15;;;24.83;;
54201;SDS011;40108;53.152;5.844;2024-01-11T10:30:12;41.35;;;24.90;;
54201;SDS011;40108;53.152;5.844;2024-01-11T10:32:41;38.78;;;24.42;;
54201;SDS011;40108;53.152;5.844;2024-01-11T10:35:07;38.85;;;23.25;;
54201;SDS011;40108;53.152;5.844;2024-01-11T10:37:33;37.85;;;23.88;;
54201;SDS011;40108;53.152;5.844;2024-01-11T10:40:02;39.05;;;24.83;;
54201;SDS011;40108;53.152;5.844;2024-01-11T10:42:41;40.15;;;23.70;;
54201;SDS011;40108;53.152;5.844;2024-01-11T10:45:15;45.20;;;24.25;;
54201;SDS011;40108;53.152;5.844;2024-01-11T10:47:52;42.67;;;24.88;;
54201;SDS011;40108;53.152;5.844;2024-01-11T10:50:36;39.03;;;23.63;;
54201;SDS011;40108;53.152;5.844;2024-01-11T10:56:09;36.95;;;22.27;;
54201;SDS011;40108;53.152;5.844;2024-01-11T10:58:37;34.78;;;22.17;;
54201;SDS011;40108;53.152;5.844;2024-01-11T11:01:09;34.17;;;21.33;;
54201;SDS011;40108;53.152;5.844;2024-01-11T11:03:36;38.13;;;22.95;;
54201;SDS011;40108;53.152;5.844;2024-01-11T11:06:04;35.88;;;22.90;;
54201;SDS011;40108;53.152;5.844;2024-01-11T11:08:34;36.05;;;21.60;;
54201;SDS011;40108;53.152;5.844;2024-01-11T11:11:01;36.70;;;22.75;;
54201;SDS011;40108;53.152;5.844;2024-01-11T11:13:31;40.15;;;22.80;;
54201;SDS011;40108;53.152;5.844;2024-01-11T11:16:00;39.40;;;22.33;;
54201;SDS011;40108;53.152;5.844;2024-01-11T11:18:27;34.72;;;21.38;;
54201;SDS011;40108;53.152;5.844;2024-01-11T11:20:53;36.35;;;22.05;;
54201;SDS011;40108;53.152;5.844;2024-01-11T11:23:19;34.58;;;20.08;;
54201;SDS011;40108;53.152;5.844;2024-01-11T11:25:45;36.60;;;20.88;;
54201;SDS011;40108;53.152;5.844;2024-01-11T11:28:12;34.72;;;19.30;;
54201;SDS011;40108;53.152;5.844;2024-01-11T11:30:40;36.97;;;21.25;;
54201;SDS011;40108;53.152;5.844;2024-01-11T11:33:18;36.53;;;20.38;;
54201;SDS011;40108;53.152;5.844;2024-01-11T11:35:48;32.83;;;19.15;;
54201;SDS011;40108;53.152;5.844;2024-01-11T11:38:21;37.75;;;20.80;;
54201;SDS011;40108;53.152;5.844;2024-01-11T11:40:52;51.70;;;25.90;;
54201;SDS011;40108;53.152;5.844;2024-01-11T11:43:23;51.67;;;25.15;;
54201;SDS011;40108;53.152;5.844;2024-01-11T11:45:51;45.58;;;23.27;;
54201;SDS011;40108;53.152;5.844;2024-01-11T11:53:32;34.67;;;20.25;;
54201;SDS011;40108;53.152;5.844;2024-01-11T11:55:59;30.73;;;19.83;;
54201;SDS011;40108;53.152;5.844;2024-01-11T11:58:25;35.85;;;19.25;;
54201;SDS011;40108;53.152;5.844;2024-01-11T12:00:57;28.02;;;16.65;;
54201;SDS011;40108;53.152;5.844;2024-01-11T12:03:37;27.65;;;16.58;;
54201;SDS011;40108;53.152;5.844;2024-01-11T12:06:05;27.83;;;17.40;;
54201;SDS011;40108;53.152;5.844;2024-01-11T12:08:35;28.02;;;16.75;;
54201;SDS011;40108;53.152;5.844;2024-01-11T12:11:02;29.42;;;17.83;;
54201;SDS011;40108;53.152;5.844;2024-01-11T12:13:28;30.77;;;16.65;;
54201;SDS011;40108;53.152;5.844;2024-01-11T12:15:56;27.00;;;16.73;;
54201;SDS011;40108;53.152;5.844;2024-01-11T12:18:22;25.85;;;16.15;;
54201;SDS011;40108;53.152;5.844;2024-01-11T12:20:47;28.88;;;16.60;;
54201;SDS011;40108;53.152;5.844;2024-01-11T12:23:13;29.40;;;16.27;;
54201;SDS011;40108;53.152;5.844;2024-01-11T12:25:40;29.15;;;15.88;;
54201;SDS011;40108;53.152;5.844;2024-01-11T12:28:06;27.15;;;16.83;;
54201;SDS011;40108;53.152;5.844;2024-01-11T12:30:32;25.17;;;15.25;;
54201;SDS011;40108;53.152;5.844;2024-01-11T12:32:58;27.58;;;15.38;;
54201;SDS011;40108;53.152;5.844;2024-01-11T12:35:28;27.63;;;15.43;;
54201;SDS011;40108;53.152;5.844;2024-01-11T12:37:54;27.88;;;16.08;;
54201;SDS011;40108;53.152;5.844;2024-01-11T12:40:26;24.38;;;13.55;;
54201;SDS011;40108;53.152;5.844;2024-01-11T12:42:53;25.95;;;13.98;;
54201;SDS011;40108;53.152;5.844;2024-01-11T12:45:19;23.10;;;13.27;;
54201;SDS011;40108;53.152;5.844;2024-01-11T12:47:45;30.77;;;14.07;;
54201;SDS011;40108;53.152;5.844;2024-01-11T12:50:11;25.10;;;13.45;;
54201;SDS011;40108;53.152;5.844;2024-01-11T12:52:40;26.15;;;12.45;;
54201;SDS011;40108;53.152;5.844;2024-01-11T12:55:07;25.27;;;11.77;;
54201;SDS011;40108;53.152;5.844;2024-01-11T12:57:42;22.45;;;10.80;;
54201;SDS011;40108;53.152;5.844;2024-01-11T13:00:09;22.15;;;10.48;;
54201;SDS011;40108;53.152;5.844;2024-01-11T13:02:36;25.48;;;10.50;;
54201;SDS011;40108;53.152;5.844;2024-01-11T13:05:02;23.80;;;11.10;;
54201;SDS011;40108;53.152;5.844;2024-01-11T13:07:28;18.33;;;9.95;;
54201;SDS011;40108;53.152;5.844;2024-01-11T13:09:55;24.80;;;10.80;;
54201;SDS011;40108;53.152;5.844;2024-01-11T13:12:21;24.17;;;10.88;;
54201;SDS011;40108;53.152;5.844;2024-01-11T13:14:47;26.55;;;9.32;;
54201;SDS011;40108;53.152;5.844;2024-01-11T13:17:13;21.38;;;9.32;;
54201;SDS011;40108;53.152;5.844;2024-01-11T13:19:39;20.70;;;8.93;;
54201;SDS011;40108;53.152;5.844;2024-01-11T13:22:05;24.33;;;9.15;;
54201;SDS011;40108;53.152;5.844;2024-01-11T13:24:30;31.23;;;9.60;;
54201;SDS011;40108;53.152;5.844;2024-01-11T13:26:56;26.92;;;9.27;;
54201;SDS011;40108;53.152;5.844;2024-01-11T13:29:22;24.75;;;8.93;;
54201;SDS011;40108;53.152;5.844;2024-01-11T13:31:48;32.25;;;8.82;;
54201;SDS011;40108;53.152;5.844;2024-01-11T13:34:13;27.00;;;8.18;;
54201;SDS011;40108;53.152;5.844;2024-01-11T13:36:39;35.40;;;8.20;;
54201;SDS011;40108;53.152;5.844;2024-01-11T13:39:05;26.27;;;7.80;;
54201;SDS011;40108;53.152;5.844;2024-01-11T13:41:33;26.58;;;6.78;;
54201;SDS011;40108;53.152;5.844;2024-01-11T13:43:59;30.92;;;7.60;;
54201;SDS011;40108;53.152;5.844;2024-01-11T13:46:25;33.25;;;7.93;;
54201;SDS011;40108;53.152;5.844;2024-01-11T13:48:51;26.63;;;7.05;;
54201;SDS011;40108;53.152;5.844;2024-01-11T13:51:16;44.53;;;6.70;;
54201;SDS011;40108;53.152;5.844;2024-01-11T13:53:42;38.17;;;6.72;;
54201;SDS011;40108;53.152;5.844;2024-01-11T13:56:08;30.50;;;4.75;;
54201;SDS011;40108;53.152;5.844;2024-01-11T13:58:34;40.45;;;5.13;;
54201;SDS011;40108;53.152;5.844;2024-01-11T14:01:00;42.25;;;5.22;;
54201;SDS011;40108;53.152;5.844;2024-01-11T14:03:26;45.45;;;5.07;;
54201;SDS011;40108;53.152;5.844;2024-01-11T14:05:51;47.17;;;4.47;;
54201;SDS011;40108;53.152;5.844;2024-01-11T14:08:17;44.28;;;5.47;;
54201;SDS011;40108;53.152;5.844;2024-01-11T14:10:43;45.47;;;5.55;;
54201;SDS011;40108;53.152;5.844;2024-01-11T14:13:09;50.80;;;5.90;;
54201;SDS011;40108;53.152;5.844;2024-01-11T14:15:34;47.08;;;5.88;;
54201;SDS011;40108;53.152;5.844;2024-01-11T14:18:00;45.80;;;5.80;;
54201;SDS011;40108;53.152;5.844;2024-01-11T14:20:26;53.05;;;6.45;;
54201;SDS011;40108;53.152;5.844;2024-01-11T14:22:52;41.28;;;5.30;;
54201;SDS011;40108;53.152;5.844;2024-01-11T14:25:21;43.72;;;4.68;;
54201;SDS011;40108;53.152;5.844;2024-01-11T14:27:49;35.80;;;4.65;;
54201;SDS011;40108;53.152;5.844;2024-01-11T14:30:15;47.88;;;6.90;;
54201;SDS011;40108;53.152;5.844;2024-01-11T14:32:41;39.67;;;4.53;;